Time;durP1;ratioP1;P1;durP2;ratioP2;P2;SDS_P1;SDS_P2;PMS_P1;PMS_P2;Temp;Humidity;BMP_temperature;BMP_pressure;BME280_temperature;BME280_humidity;BME280_pressure;Samples;Min_cycle;Max_cycle;Signal;HPM_P1;HPM_P2
2022/07/22 00:01:44;;;;;;;2.15;1.70;;;;;;;;;;5029857;28;20076;-75
2022/07/22 00:04:10;;;;;;;3.35;1.50;;;;;;;;;;5024986;28;20149;-76
2022/07/22 00:06:36;;;;;;;2.97;1.70;;;;;;;;;;5029277;28;20037;-76
2022/07/22 00:09:02;;;;;;;2.85;1.58;;;;;;;;;;5032807;28;20048;-76
2022/07/22 00:11:28;;;;;;;5.18;1.60;;;;;;;;;;5025748;28;20047;-76
2022/07/22 00:13:54;;;;;;;4.78;1.85;;;;;;;;;;5030394;28;20033;-76
2022/07/22 00:16:20;;;;;;;5.57;1.98;;;;;;;;;;5027823;28;20128;-76
2022/07/22 00:18:46;;;;;;;6.05;1.83;;;;;;;;;;5029968;28;20139;-76
2022/07/22 00:21:12;;;;;;;3.75;1.75;;;;;;;;;;5025106;28;20049;-76
2022/07/22 00:23:39;;;;;;;5.20;2.15;;;;;;;;;;5027529;28;20049;-76
2022/07/22 00:26:05;;;;;;;3.63;2.20;;;;;;;;;;5027126;28;20051;-77
2022/07/22 00:28:31;;;;;;;5.10;1.90;;;;;;;;;;5017722;28;20045;-76
2022/07/22 00:30:58;;;;;;;4.38;1.95;;;;;;;;;;5035411;28;20044;-76
2022/07/22 00:33:24;;;;;;;5.55;2.03;;;;;;;;;;5031465;28;20049;-76
2022/07/22 00:35:50;;;;;;;4.10;1.95;;;;;;;;;;5030136;28;20037;-76
2022/07/22 00:38:16;;;;;;;4.47;2.00;;;;;;;;;;5023282;28;20050;-76
2022/07/22 00:40:42;;;;;;;5.68;2.00;;;;;;;;;;5021642;28;20037;-76
2022/07/22 00:43:08;;;;;;;2.50;1.80;;;;;;;;;;5032038;28;20137;-76
2022/07/22 00:45:34;;;;;;;4.82;2.00;;;;;;;;;;5036889;28;20052;-76
2022/07/22 00:48:04;;;;;;;3.20;2.05;;;;;;;;;;5028952;28;20049;-76
2022/07/22 00:50:30;;;;;;;2.63;1.73;;;;;;;;;;5032281;28;20041;-76
2022/07/22 00:52:56;;;;;;;4.53;2.03;;;;;;;;;;5032090;28;20045;-76
2022/07/22 00:55:22;;;;;;;5.43;1.90;;;;;;;;;;5034262;28;20127;-76
2022/07/22 00:57:48;;;;;;;4.57;2.10;;;;;;;;;;5025455;28;22069;-75
2022/07/22 01:00:16;;;;;;;4.68;2.10;;;;;;;;;;5030698;28;20480;-76
2022/07/22 01:02:49;;;;;;;4.80;2.00;;;;;;;;;;5026585;28;20046;-76
2022/07/22 01:05:15;;;;;;;4.32;2.05;;;;;;;;;;5028879;28;20592;-76
2022/07/22 01:07:41;;;;;;;4.10;1.90;;;;;;;;;;5026405;28;20041;-76
2022/07/22 01:10:07;;;;;;;4.35;2.22;;;;;;;;;;5023500;28;20099;-75
2022/07/22 01:12:33;;;;;;;3.35;1.88;;;;;;;;;;5029866;28;20544;-76
2022/07/22 01:14:59;;;;;;;2.35;1.73;;;;;;;;;;5030426;28;20077;-76
2022/07/22 01:17:25;;;;;;;4.28;1.70;;;;;;;;;;5026176;28;20094;-75
2022/07/22 01:19:52;;;;;;;3.55;1.70;;;;;;;;;;5026450;28;20476;-76
2022/07/22 01:22:18;;;;;;;5.40;2.42;;;;;;;;;;5029157;28;20554;-75
2022/07/22 01:24:44;;;;;;;3.38;1.70;;;;;;;;;;5025218;28;20051;-75
2022/07/22 01:27:10;;;;;;;4.22;1.92;;;;;;;;;;5028419;28;20080;-75
2022/07/22 01:29:36;;;;;;;6.80;1.95;;;;;;;;;;5014991;28;20037;-76
2022/07/22 01:32:02;;;;;;;5.93;1.90;;;;;;;;;;5016244;28;20099;-76
2022/07/22 01:34:28;;;;;;;4.55;1.70;;;;;;;;;;5019146;28;20045;-76
2022/07/22 01:36:54;;;;;;;3.75;1.75;;;;;;;;;;5025680;28;20101;-75
2022/07/22 01:39:20;;;;;;;3.55;1.83;;;;;;;;;;5043127;28;20132;-75
2022/07/22 01:41:46;;;;;;;3.53;1.85;;;;;;;;;;5035470;28;20072;-75
2022/07/22 01:44:12;;;;;;;3.67;1.90;;;;;;;;;;5033525;28;20400;-75
2022/07/22 01:46:39;;;;;;;3.45;1.90;;;;;;;;;;5037177;28;20088;-76
2022/07/22 01:49:05;;;;;;;2.00;1.80;;;;;;;;;;5033810;28;20103;-76
2022/07/22 01:51:31;;;;;;;3.65;1.85;;;;;;;;;;5032882;28;20050;-75
2022/07/22 01:53:57;;;;;;;2.05;1.75;;;;;;;;;;5038027;28;20045;-75
2022/07/22 01:56:23;;;;;;;3.15;1.80;;;;;;;;;;5033696;28;20045;-76
2022/07/22 01:58:49;;;;;;;4.05;1.98;;;;;;;;;;5032462;28;20826;-76
2022/07/22 02:01:15;;;;;;;2.10;1.90;;;;;;;;;;5030207;28;20051;-75
2022/07/22 02:03:42;;;;;;;3.08;1.80;;;;;;;;;;5037202;28;20042;-76
2022/07/22 02:06:08;;;;;;;2.88;1.80;;;;;;;;;;5030550;28;20079;-75
2022/07/22 02:08:34;;;;;;;5.75;1.75;;;;;;;;;;5037480;28;20049;-76
2022/07/22 02:11:02;;;;;;;2.95;1.70;;;;;;;;;;5032514;28;20052;-75
2022/07/22 02:13:28;;;;;;;3.22;1.70;;;;;;;;;;5033535;28;20461;-76
2022/07/22 02:15:54;;;;;;;2.67;1.70;;;;;;;;;;5029713;28;20385;-75
2022/07/22 02:18:20;;;;;;;2.25;1.58;;;;;;;;;;5030431;28;20061;-75
2022/07/22 02:20:46;;;;;;;3.90;1.70;;;;;;;;;;5030272;28;20045;-75
2022/07/22 02:23:12;;;;;;;3.33;2.28;;;;;;;;;;5029972;28;21909;-75
2022/07/22 02:25:39;;;;;;;2.70;1.80;;;;;;;;;;5032838;28;20048;-76
2022/07/22 02:28:05;;;;;;;2.92;1.70;;;;;;;;;;5030539;28;20040;-76
2022/07/22 02:30:32;;;;;;;4.97;2.13;;;;;;;;;;5023716;28;20042;-76
2022/07/22 02:32:58;;;;;;;4.30;1.73;;;;;;;;;;5021498;28;20505;-76
2022/07/22 02:35:24;;;;;;;4.45;1.80;;;;;;;;;;5027304;28;20036;-75
2022/07/22 02:37:50;;;;;;;3.00;1.95;;;;;;;;;;5033039;28;20041;-75
2022/07/22 02:40:16;;;;;;;5.40;1.90;;;;;;;;;;5038644;28;20045;-76
2022/07/22 02:42:42;;;;;;;2.20;1.83;;;;;;;;;;5020845;28;20103;-76
2022/07/22 02:45:09;;;;;;;4.10;2.08;;;;;;;;;;5017190;28;20053;-77
2022/07/22 02:47:52;;;;;;;3.30;1.85;;;;;;;;;;5044401;28;20118;-76
2022/07/22 02:50:19;;;;;;;3.22;1.80;;;;;;;;;;5036568;28;20052;-76
2022/07/22 02:52:45;;;;;;;3.28;1.88;;;;;;;;;;5039938;28;20038;-75
2022/07/22 02:55:11;;;;;;;5.90;2.20;;;;;;;;;;5032163;28;20381;-75
2022/07/22 02:57:38;;;;;;;2.97;1.75;;;;;;;;;;5031573;28;20041;-75
2022/07/22 03:00:04;;;;;;;3.60;1.80;;;;;;;;;;5027824;28;20029;-75
2022/07/22 03:02:31;;;;;;;4.00;2.03;;;;;;;;;;5033284;28;20041;-75
2022/07/22 03:04:57;;;;;;;5.03;2.30;;;;;;;;;;5032796;28;20053;-75
2022/07/22 03:07:23;;;;;;;7.30;2.25;;;;;;;;;;5029398;28;20048;-76
2022/07/22 03:09:49;;;;;;;6.82;2.40;;;;;;;;;;5031647;28;20052;-75
2022/07/22 03:12:15;;;;;;;4.95;2.25;;;;;;;;;;5032474;28;20038;-76
2022/07/22 03:14:41;;;;;;;5.90;2.10;;;;;;;;;;5039897;28;20116;-76
2022/07/22 03:17:07;;;;;;;4.50;2.00;;;;;;;;;;5034846;28;20188;-75
2022/07/22 03:19:33;;;;;;;3.40;1.90;;;;;;;;;;5034775;28;20048;-75
2022/07/22 03:21:59;;;;;;;3.75;1.95;;;;;;;;;;5027478;28;20050;-75
2022/07/22 03:24:25;;;;;;;2.58;1.85;;;;;;;;;;5031065;28;20574;-75
2022/07/22 03:26:51;;;;;;;4.10;1.90;;;;;;;;;;5033997;28;20044;-76
2022/07/22 03:29:17;;;;;;;6.18;2.10;;;;;;;;;;5023258;28;20053;-75
2022/07/22 03:31:43;;;;;;;4.72;1.90;;;;;;;;;;5021344;28;20049;-75
2022/07/22 03:34:09;;;;;;;3.85;1.92;;;;;;;;;;5033998;28;20390;-75
2022/07/22 03:36:35;;;;;;;3.58;1.88;;;;;;;;;;5036637;28;20075;-75
2022/07/22 03:39:01;;;;;;;5.85;1.80;;;;;;;;;;5029391;28;20052;-75
2022/07/22 03:41:27;;;;;;;4.10;2.00;;;;;;;;;;5032345;28;20049;-75
2022/07/22 03:43:56;;;;;;;4.07;2.10;;;;;;;;;;5041744;28;20445;-76
2022/07/22 03:46:23;;;;;;;3.03;1.80;;;;;;;;;;5029986;28;20041;-76
2022/07/22 03:48:49;;;;;;;4.22;2.20;;;;;;;;;;5031547;28;20120;-75
2022/07/22 03:51:15;;;;;;;3.50;1.75;;;;;;;;;;5022576;28;20087;-75
2022/07/22 03:53:41;;;;;;;4.72;1.85;;;;;;;;;;5020921;28;20124;-76
2022/07/22 03:56:07;;;;;;;3.85;2.10;;;;;;;;;;5030334;28;20033;-76
2022/07/22 03:58:33;;;;;;;3.67;1.80;;;;;;;;;;5015410;28;20057;-77
2022/07/22 04:00:59;;;;;;;4.43;1.70;;;;;;;;;;5007578;28;20045;-75
2022/07/22 04:03:25;;;;;;;2.67;1.88;;;;;;;;;;5016938;28;20042;-75
2022/07/22 04:05:51;;;;;;;3.13;1.80;;;;;;;;;;5019499;28;20052;-76
2022/07/22 04:08:18;;;;;;;4.60;1.88;;;;;;;;;;5020247;28;20377;-76
2022/07/22 04:10:44;;;;;;;2.05;1.45;;;;;;;;;;5037684;28;20037;-76
2022/07/22 04:13:11;;;;;;;3.15;1.83;;;;;;;;;;5034455;28;20132;-76
2022/07/22 04:15:37;;;;;;;2.85;1.58;;;;;;;;;;5032610;28;20378;-76
2022/07/22 04:18:03;;;;;;;1.85;1.42;;;;;;;;;;5033791;28;20155;-76
2022/07/22 04:20:29;;;;;;;2.50;1.50;;;;;;;;;;5033208;28;20044;-75
2022/07/22 04:22:55;;;;;;;2.33;1.63;;;;;;;;;;5026062;28;20046;-75
2022/07/22 04:25:21;;;;;;;2.63;1.90;;;;;;;;;;5027160;28;20045;-75
2022/07/22 04:27:47;;;;;;;4.40;1.70;;;;;;;;;;5017709;28;20056;-76
2022/07/22 04:30:13;;;;;;;2.85;1.73;;;;;;;;;;5020233;28;20070;-75
2022/07/22 04:32:39;;;;;;;3.42;1.90;;;;;;;;;;5009907;28;20045;-76
2022/07/22 04:35:06;;;;;;;4.38;1.80;;;;;;;;;;5027026;28;20044;-75
2022/07/22 04:37:32;;;;;;;3.75;1.80;;;;;;;;;;5027712;28;20083;-76
2022/07/22 04:39:58;;;;;;;3.38;1.80;;;;;;;;;;5022885;28;20115;-75
2022/07/22 04:42:24;;;;;;;2.97;1.70;;;;;;;;;;5008005;28;22538;-75
2022/07/22 04:44:50;;;;;;;2.72;1.80;;;;;;;;;;5013105;28;20417;-75
2022/07/22 04:47:16;;;;;;;3.95;1.90;;;;;;;;;;5028469;28;20044;-75
2022/07/22 04:49:42;;;;;;;3.15;1.80;;;;;;;;;;5025400;28;20065;-75
2022/07/22 04:52:08;;;;;;;4.25;1.98;;;;;;;;;;5022462;28;20064;-75
2022/07/22 04:54:35;;;;;;;3.70;1.73;;;;;;;;;;5026895;28;20076;-76
2022/07/22 04:57:01;;;;;;;4.97;1.80;;;;;;;;;;5031111;28;20048;-75
2022/07/22 04:59:33;;;;;;;2.90;1.58;;;;;;;;;;5027448;28;20045;-76
2022/07/22 05:01:59;;;;;;;4.43;1.92;;;;;;;;;;5020118;28;20049;-76
2022/07/22 05:04:25;;;;;;;2.97;1.80;;;;;;;;;;5019709;28;20060;-75
2022/07/22 05:06:54;;;;;;;3.47;1.73;;;;;;;;;;5025349;28;20408;-75
2022/07/22 05:09:20;;;;;;;3.28;1.80;;;;;;;;;;5025540;28;20498;-75
2022/07/22 05:11:46;;;;;;;3.15;1.80;;;;;;;;;;5018823;28;20087;-75
2022/07/22 05:14:15;;;;;;;2.65;1.85;;;;;;;;;;5024041;28;20041;-76
2022/07/22 05:16:41;;;;;;;2.05;1.50;;;;;;;;;;5027390;28;20400;-75
2022/07/22 05:19:07;;;;;;;3.10;1.70;;;;;;;;;;5027930;28;20516;-75
2022/07/22 05:21:34;;;;;;;3.47;1.60;;;;;;;;;;5023935;28;20054;-76
2022/07/22 05:24:00;;;;;;;2.55;1.50;;;;;;;;;;5016561;28;20167;-76
2022/07/22 05:26:29;;;;;;;1.92;1.50;;;;;;;;;;5020846;28;20177;-76
2022/07/22 05:28:55;;;;;;;2.75;1.60;;;;;;;;;;5026109;28;20060;-76
2022/07/22 05:31:22;;;;;;;2.72;2.08;;;;;;;;;;5020943;28;20077;-74
2022/07/22 05:33:48;;;;;;;2.47;1.45;;;;;;;;;;5021116;28;21166;-76
2022/07/22 05:36:14;;;;;;;1.77;1.60;;;;;;;;;;5020880;28;20037;-76
2022/07/22 05:38:40;;;;;;;2.20;1.30;;;;;;;;;;5021290;28;20045;-77
2022/07/22 05:41:06;;;;;;;3.75;1.60;;;;;;;;;;5022350;28;20140;-76
2022/07/22 05:43:32;;;;;;;2.10;1.50;;;;;;;;;;5021628;28;20049;-77
2022/07/22 05:46:01;;;;;;;4.43;1.70;;;;;;;;;;5025812;28;20037;-77
2022/07/22 05:48:27;;;;;;;4.30;1.90;;;;;;;;;;5027745;28;20087;-77
2022/07/22 05:50:53;;;;;;;3.70;1.70;;;;;;;;;;5038079;28;20868;-76
2022/07/22 05:53:19;;;;;;;5.93;2.30;;;;;;;;;;5025860;28;20053;-77
2022/07/22 05:55:45;;;;;;;2.65;1.70;;;;;;;;;;5033789;28;20482;-77
2022/07/22 05:58:11;;;;;;;2.10;1.50;;;;;;;;;;5026459;28;20650;-77
2022/07/22 06:00:37;;;;;;;1.40;1.30;;;;;;;;;;5034491;28;20072;-77
2022/07/22 06:03:03;;;;;;;1.52;1.38;;;;;;;;;;5031451;28;20099;-77
2022/07/22 06:05:29;;;;;;;2.45;1.50;;;;;;;;;;5030075;28;20118;-76
2022/07/22 06:07:55;;;;;;;2.20;1.55;;;;;;;;;;5033438;28;20048;-76
2022/07/22 06:10:21;;;;;;;1.70;1.55;;;;;;;;;;5026158;28;20048;-76
2022/07/22 06:12:47;;;;;;;3.15;1.50;;;;;;;;;;5027442;28;20058;-76
2022/07/22 06:15:13;;;;;;;3.20;1.40;;;;;;;;;;5040280;28;20130;-77
2022/07/22 06:17:39;;;;;;;2.03;1.40;;;;;;;;;;5032196;28;20089;-76
2022/07/22 06:20:05;;;;;;;2.05;1.40;;;;;;;;;;5032216;28;20049;-75
2022/07/22 06:22:31;;;;;;;3.70;1.40;;;;;;;;;;5029898;28;20103;-76
2022/07/22 06:24:57;;;;;;;2.05;1.42;;;;;;;;;;5030551;28;21601;-76
2022/07/22 06:27:23;;;;;;;3.92;1.50;;;;;;;;;;5031422;28;20048;-76
2022/07/22 06:29:49;;;;;;;2.08;1.40;;;;;;;;;;5037100;28;20037;-76
2022/07/22 06:32:15;;;;;;;2.60;1.40;;;;;;;;;;5027767;28;20044;-76
2022/07/22 06:34:41;;;;;;;2.95;1.35;;;;;;;;;;5032365;28;20048;-76
2022/07/22 06:37:08;;;;;;;3.15;1.52;;;;;;;;;;5035181;28;20105;-76
2022/07/22 06:39:34;;;;;;;5.82;1.48;;;;;;;;;;5037113;28;20541;-77
2022/07/22 06:42:00;;;;;;;2.17;1.35;;;;;;;;;;5040803;28;20433;-76
2022/07/22 06:44:26;;;;;;;1.83;1.20;;;;;;;;;;5032683;28;20053;-76
2022/07/22 06:46:52;;;;;;;1.27;1.20;;;;;;;;;;5045108;28;20045;-76
2022/07/22 06:49:18;;;;;;;3.55;1.60;;;;;;;;;;5042661;28;20161;-76
2022/07/22 06:51:44;;;;;;;3.05;1.42;;;;;;;;;;5049117;28;20037;-77
2022/07/22 06:54:10;;;;;;;3.33;1.42;;;;;;;;;;5032082;28;20047;-76
2022/07/22 06:56:36;;;;;;;2.65;1.30;;;;;;;;;;5034051;28;20049;-77
2022/07/22 06:59:02;;;;;;;1.48;1.15;;;;;;;;;;5032538;28;20396;-76
2022/07/22 07:01:31;;;;;;;1.42;1.30;;;;;;;;;;5040280;28;20048;-77
2022/07/22 07:03:57;;;;;;;1.70;1.20;;;;;;;;;;5034275;28;20045;-76
2022/07/22 07:06:23;;;;;;;3.03;1.23;;;;;;;;;;5035224;28;20056;-75
2022/07/22 07:08:49;;;;;;;1.85;1.30;;;;;;;;;;5033272;28;20729;-76
2022/07/22 07:11:15;;;;;;;1.55;1.10;;;;;;;;;;5039296;28;20120;-76
2022/07/22 07:13:41;;;;;;;1.73;1.13;;;;;;;;;;5039491;28;20045;-76
2022/07/22 07:16:07;;;;;;;1.30;1.20;;;;;;;;;;5051749;28;20413;-76
2022/07/22 07:18:33;;;;;;;2.25;1.40;;;;;;;;;;5040165;28;20107;-76
2022/07/22 07:20:59;;;;;;;4.43;1.60;;;;;;;;;;5044911;28;20136;-76
2022/07/22 07:23:25;;;;;;;2.95;1.30;;;;;;;;;;5042808;28;20121;-76
2022/07/22 07:25:51;;;;;;;4.80;1.45;;;;;;;;;;5046132;28;20400;-76
2022/07/22 07:28:18;;;;;;;2.22;1.50;;;;;;;;;;5035234;28;20045;-76
2022/07/22 07:30:44;;;;;;;2.28;1.60;;;;;;;;;;5035720;28;20362;-76
2022/07/22 07:33:10;;;;;;;2.33;1.40;;;;;;;;;;5031844;28;20052;-76
2022/07/22 07:35:36;;;;;;;1.63;1.20;;;;;;;;;;5041903;28;20044;-76
2022/07/22 07:38:03;;;;;;;3.65;1.40;;;;;;;;;;5036704;28;20052;-76
2022/07/22 07:40:29;;;;;;;3.33;1.23;;;;;;;;;;5038580;28;20128;-76
2022/07/22 07:42:55;;;;;;;5.93;1.35;;;;;;;;;;5040558;28;20045;-75
2022/07/22 07:45:21;;;;;;;2.88;1.30;;;;;;;;;;5038184;28;20050;-75
2022/07/22 07:47:47;;;;;;;3.28;1.27;;;;;;;;;;5033200;28;20087;-75
2022/07/22 07:50:14;;;;;;;2.17;1.20;;;;;;;;;;5038722;28;20041;-74
2022/07/22 07:52:47;;;;;;;1.77;1.10;;;;;;;;;;5037065;28;20056;-75
2022/07/22 07:55:13;;;;;;;3.00;1.30;;;;;;;;;;5045820;28;20057;-75
2022/07/22 07:57:39;;;;;;;1.20;1.10;;;;;;;;;;5036390;28;20049;-73
2022/07/22 08:00:06;;;;;;;4.70;1.45;;;;;;;;;;5037425;28;20077;-77
2022/07/22 08:02:32;;;;;;;3.35;1.35;;;;;;;;;;5031988;28;20041;-75
2022/07/22 08:04:58;;;;;;;2.33;1.20;;;;;;;;;;5037529;28;20048;-75
2022/07/22 08:07:24;;;;;;;2.45;1.10;;;;;;;;;;5035635;28;20068;-75
2022/07/22 08:09:50;;;;;;;3.30;1.20;;;;;;;;;;5043298;28;20434;-76
2022/07/22 08:12:16;;;;;;;3.45;1.40;;;;;;;;;;5039879;28;20519;-75
2022/07/22 08:14:42;;;;;;;2.53;1.17;;;;;;;;;;5040356;28;20077;-75
2022/07/22 08:17:08;;;;;;;2.35;1.38;;;;;;;;;;5043393;28;20127;-75
2022/07/22 08:19:34;;;;;;;2.92;1.40;;;;;;;;;;5041099;28;20065;-76
2022/07/22 08:22:00;;;;;;;5.43;1.40;;;;;;;;;;5033092;28;20037;-75
2022/07/22 08:24:26;;;;;;;2.72;1.40;;;;;;;;;;5035748;28;20044;-75
2022/07/22 08:26:53;;;;;;;2.70;1.50;;;;;;;;;;5040687;28;20049;-75
2022/07/22 08:29:19;;;;;;;2.10;1.10;;;;;;;;;;5035852;28;20091;-75
2022/07/22 08:31:45;;;;;;;2.55;1.30;;;;;;;;;;5030492;28;20041;-74
2022/07/22 08:34:11;;;;;;;2.67;1.25;;;;;;;;;;5034301;28;20044;-74
2022/07/22 08:36:37;;;;;;;4.15;1.20;;;;;;;;;;5032565;28;20140;-74
2022/07/22 08:39:03;;;;;;;2.65;1.42;;;;;;;;;;5034633;28;20055;-74
2022/07/22 08:41:32;;;;;;;2.15;1.35;;;;;;;;;;5038400;28;20112;-75
2022/07/22 08:43:58;;;;;;;2.83;1.27;;;;;;;;;;5037258;28;20045;-75
2022/07/22 08:46:25;;;;;;;1.33;1.10;;;;;;;;;;5040556;28;20037;-74
2022/07/22 08:48:51;;;;;;;2.33;1.35;;;;;;;;;;5043488;28;20444;-76
2022/07/22 08:51:17;;;;;;;2.30;1.35;;;;;;;;;;5033496;28;20068;-76
2022/07/22 08:53:43;;;;;;;3.13;1.52;;;;;;;;;;5031690;28;20461;-75
2022/07/22 08:56:09;;;;;;;2.58;1.20;;;;;;;;;;5039759;28;20045;-76
2022/07/22 08:58:35;;;;;;;3.33;1.33;;;;;;;;;;5034798;28;20042;-77
2022/07/22 09:01:19;;;;;;;2.97;1.27;;;;;;;;;;5032047;28;20095;-76
2022/07/22 09:03:45;;;;;;;2.55;1.30;;;;;;;;;;5032561;28;20393;-76
2022/07/22 09:06:11;;;;;;;1.85;1.40;;;;;;;;;;5025927;28;20041;-76
2022/07/22 09:08:59;;;;;;;2.35;1.30;;;;;;;;;;5029216;28;21330;-76
2022/07/22 09:11:27;;;;;;;2.95;1.35;;;;;;;;;;5034328;28;20129;-76
2022/07/22 09:13:53;;;;;;;2.83;1.40;;;;;;;;;;5033020;28;20076;-75
2022/07/22 09:16:39;;;;;;;2.15;1.40;;;;;;;;;;5027796;28;20064;-76
2022/07/22 09:19:05;;;;;;;1.42;1.33;;;;;;;;;;5035830;28;20128;-76
2022/07/22 09:21:31;;;;;;;1.52;1.20;;;;;;;;;;5036248;28;20096;-76
2022/07/22 09:23:57;;;;;;;1.77;1.30;;;;;;;;;;5031025;28;20041;-76
2022/07/22 09:26:37;;;;;;;3.00;1.67;;;;;;;;;;5030601;28;20424;-75
2022/07/22 09:29:04;;;;;;;1.77;1.40;;;;;;;;;;5037607;28;20107;-75
2022/07/22 09:31:35;;;;;;;2.85;1.60;;;;;;;;;;5031840;28;20049;-74
2022/07/22 09:34:01;;;;;;;2.20;1.67;;;;;;;;;;5033296;28;20102;-74
2022/07/22 09:36:27;;;;;;;2.97;1.50;;;;;;;;;;5027716;28;20064;-76
2022/07/22 09:38:54;;;;;;;2.90;1.35;;;;;;;;;;5036377;28;20499;-76
2022/07/22 09:41:20;;;;;;;2.75;1.50;;;;;;;;;;5037173;28;20119;-76
2022/07/22 09:43:46;;;;;;;4.65;1.70;;;;;;;;;;5031701;28;20500;-76
2022/07/22 09:46:12;;;;;;;1.67;1.58;;;;;;;;;;5030724;28;20053;-75
2022/07/22 09:48:39;;;;;;;1.85;1.45;;;;;;;;;;5027723;28;20489;-76
2022/07/22 09:51:05;;;;;;;1.92;1.20;;;;;;;;;;5032356;28;20749;-76
2022/07/22 09:53:32;;;;;;;1.77;1.30;;;;;;;;;;5035891;28;20128;-76
2022/07/22 09:55:59;;;;;;;1.42;1.30;;;;;;;;;;5037586;28;20041;-76
2022/07/22 09:58:26;;;;;;;2.97;1.40;;;;;;;;;;5031028;28;20778;-76
2022/07/22 10:00:52;;;;;;;1.70;1.40;;;;;;;;;;5034574;28;21376;-75
2022/07/22 10:03:19;;;;;;;2.25;1.40;;;;;;;;;;5032935;28;20045;-76
2022/07/22 10:05:48;;;;;;;1.65;1.30;;;;;;;;;;5033622;28;20046;-75
2022/07/22 10:08:14;;;;;;;1.52;1.30;;;;;;;;;;5037670;28;20148;-76
2022/07/22 10:10:40;;;;;;;2.80;1.40;;;;;;;;;;5035951;28;20045;-76
2022/07/22 10:13:07;;;;;;;1.38;1.23;;;;;;;;;;5038954;28;20072;-76
2022/07/22 10:15:34;;;;;;;2.78;1.52;;;;;;;;;;5038466;28;20049;-76
2022/07/22 10:18:03;;;;;;;1.20;1.20;;;;;;;;;;5033095;28;20056;-76
2022/07/22 10:20:30;;;;;;;3.38;1.50;;;;;;;;;;5032671;28;20266;-76
2022/07/22 10:22:57;;;;;;;2.47;1.40;;;;;;;;;;5037907;28;20037;-75
2022/07/22 10:25:24;;;;;;;3.47;1.33;;;;;;;;;;5031783;28;20053;-76
2022/07/22 10:27:50;;;;;;;3.47;1.30;;;;;;;;;;5032370;28;20064;-75
2022/07/22 10:30:18;;;;;;;3.42;1.40;;;;;;;;;;5040512;28;20132;-75
2022/07/22 10:32:44;;;;;;;2.20;1.20;;;;;;;;;;5040194;28;20477;-75
2022/07/22 10:35:10;;;;;;;3.85;1.52;;;;;;;;;;5032660;28;20056;-75
2022/07/22 10:37:38;;;;;;;1.48;1.30;;;;;;;;;;5039762;28;20042;-76
2022/07/22 10:40:11;;;;;;;1.08;1.05;;;;;;;;;;5038999;28;20400;-76
2022/07/22 10:42:55;;;;;;;2.35;1.40;;;;;;;;;;5033281;28;20050;-76
2022/07/22 10:45:21;;;;;;;1.55;1.23;;;;;;;;;;5029617;28;20046;-76
2022/07/22 10:48:05;;;;;;;1.88;1.50;;;;;;;;;;5036906;28;20053;-76
2022/07/22 10:50:37;;;;;;;2.65;1.42;;;;;;;;;;5044466;28;20257;-76
2022/07/22 10:53:18;;;;;;;2.30;1.55;;;;;;;;;;5042076;28;20045;-76
2022/07/22 10:56:04;;;;;;;5.82;1.60;;;;;;;;;;5037889;28;20504;-77
2022/07/22 10:58:33;;;;;;;2.38;1.30;;;;;;;;;;5041192;28;20061;-74
2022/07/22 11:01:01;;;;;;;1.48;1.38;;;;;;;;;;5032642;28;20091;-75
2022/07/22 11:03:29;;;;;;;1.83;1.33;;;;;;;;;;5037074;28;20045;-74
2022/07/22 11:05:56;;;;;;;1.70;1.25;;;;;;;;;;5033630;28;20045;-74
2022/07/22 11:08:22;;;;;;;2.28;1.42;;;;;;;;;;5035439;28;20519;-74
2022/07/22 11:10:49;;;;;;;5.18;1.50;;;;;;;;;;5035761;28;20045;-74
2022/07/22 11:13:31;;;;;;;2.63;1.30;;;;;;;;;;5033977;28;20443;-73
2022/07/22 11:15:57;;;;;;;3.17;1.40;;;;;;;;;;5033338;28;20041;-78
2022/07/22 11:18:23;;;;;;;2.88;1.50;;;;;;;;;;5032575;28;20048;-74
2022/07/22 11:20:49;;;;;;;3.80;1.40;;;;;;;;;;5039053;28;20413;-74
2022/07/22 11:23:16;;;;;;;3.40;1.42;;;;;;;;;;5033709;28;20102;-74
2022/07/22 11:25:42;;;;;;;2.40;1.33;;;;;;;;;;5035207;28;21097;-75
2022/07/22 11:28:08;;;;;;;2.92;1.40;;;;;;;;;;5033746;28;20052;-75
2022/07/22 11:30:34;;;;;;;2.10;1.38;;;;;;;;;;5034265;28;20056;-75
2022/07/22 11:33:02;;;;;;;2.30;1.30;;;;;;;;;;5028095;28;20051;-74
2022/07/22 11:35:28;;;;;;;2.28;1.48;;;;;;;;;;5031574;28;20493;-73
2022/07/22 11:37:57;;;;;;;1.92;1.25;;;;;;;;;;5036740;28;20048;-74
2022/07/22 11:40:23;;;;;;;1.75;1.50;;;;;;;;;;5034176;28;20082;-73
2022/07/22 11:43:01;;;;;;;4.13;1.50;;;;;;;;;;5046819;28;20059;-73
2022/07/22 11:45:27;;;;;;;2.90;1.40;;;;;;;;;;5036817;28;20053;-73
2022/07/22 11:47:54;;;;;;;2.03;1.40;;;;;;;;;;5036767;28;20034;-74
2022/07/22 11:50:33;;;;;;;4.13;1.58;;;;;;;;;;5032160;28;20122;-73
2022/07/22 11:53:02;;;;;;;3.20;1.30;;;;;;;;;;5028436;28;20412;-75
2022/07/22 11:55:27;;;;;;;2.42;1.20;;;;;;;;;;5034436;28;20045;-73
2022/07/22 11:57:54;;;;;;;1.88;1.20;;;;;;;;;;5032752;28;20041;-75
2022/07/22 12:00:20;;;;;;;2.72;1.50;;;;;;;;;;5034181;28;20104;-72
2022/07/22 12:02:46;;;;;;;3.53;1.38;;;;;;;;;;5033356;28;20050;-72
2022/07/22 12:05:13;;;;;;;1.92;1.27;;;;;;;;;;5032069;28;20041;-74
2022/07/22 12:07:39;;;;;;;3.10;1.30;;;;;;;;;;5032591;28;20135;-74
2022/07/22 12:10:05;;;;;;;2.45;1.30;;;;;;;;;;5042389;28;20053;-75
2022/07/22 12:12:41;;;;;;;2.00;1.30;;;;;;;;;;5034722;28;20052;-75
2022/07/22 12:15:08;;;;;;;2.17;1.08;;;;;;;;;;5032891;28;20513;-76
2022/07/22 12:17:34;;;;;;;1.85;1.25;;;;;;;;;;5032828;28;20496;-75
2022/07/22 12:20:10;;;;;;;2.45;1.42;;;;;;;;;;5034087;28;20046;-74
2022/07/22 12:22:44;;;;;;;2.28;1.30;;;;;;;;;;5032264;28;20060;-74
2022/07/22 12:25:11;;;;;;;2.72;1.50;;;;;;;;;;5031053;28;20085;-75
2022/07/22 12:27:37;;;;;;;6.00;1.80;;;;;;;;;;5032350;28;20045;-75
2022/07/22 12:30:11;;;;;;;1.45;1.35;;;;;;;;;;5031603;28;20049;-75
2022/07/22 12:32:46;;;;;;;1.75;1.45;;;;;;;;;;5033303;28;20041;-75
2022/07/22 12:35:14;;;;;;;2.42;1.55;;;;;;;;;;5039374;28;20504;-75
2022/07/22 12:37:44;;;;;;;3.70;1.60;;;;;;;;;;5038904;28;20127;-75
2022/07/22 12:40:21;;;;;;;3.67;1.30;;;;;;;;;;5032652;28;20044;-76
2022/07/22 12:43:07;;;;;;;2.65;1.40;;;;;;;;;;5033707;28;20054;-76
2022/07/22 12:45:36;;;;;;;2.58;1.60;;;;;;;;;;5030956;28;20080;-76
2022/07/22 12:48:05;;;;;;;2.55;1.42;;;;;;;;;;5031848;28;20523;-75
2022/07/22 12:50:44;;;;;;;3.45;1.80;;;;;;;;;;5030907;28;20123;-74
2022/07/22 12:53:12;;;;;;;2.55;1.45;;;;;;;;;;5031481;28;20049;-75
2022/07/22 12:55:39;;;;;;;3.45;1.50;;;;;;;;;;5031927;28;20046;-76
2022/07/22 12:58:06;;;;;;;2.05;1.50;;;;;;;;;;5031341;28;20091;-75
2022/07/22 13:00:34;;;;;;;1.60;1.50;;;;;;;;;;5035684;28;20041;-76
2022/07/22 13:03:00;;;;;;;2.65;1.50;;;;;;;;;;5038097;28;20460;-75
2022/07/22 13:05:26;;;;;;;2.78;1.50;;;;;;;;;;5035828;28;20049;-74
2022/07/22 13:07:53;;;;;;;2.10;1.40;;;;;;;;;;5030911;28;20109;-75
2022/07/22 13:10:19;;;;;;;2.22;1.35;;;;;;;;;;5032269;28;20042;-75
2022/07/22 13:12:46;;;;;;;2.83;1.20;;;;;;;;;;5031999;28;20057;-75
2022/07/22 13:15:12;;;;;;;2.30;1.33;;;;;;;;;;5043823;28;20088;-75
2022/07/22 13:17:39;;;;;;;1.30;1.20;;;;;;;;;;5051641;28;20444;-75
2022/07/22 13:20:05;;;;;;;2.78;1.50;;;;;;;;;;5051860;28;20572;-75
2022/07/22 13:22:31;;;;;;;3.42;1.50;;;;;;;;;;5049064;28;20063;-75
2022/07/22 13:24:57;;;;;;;1.40;1.30;;;;;;;;;;5030249;28;20132;-75
2022/07/22 13:27:23;;;;;;;2.40;1.35;;;;;;;;;;5033556;28;20095;-75
2022/07/22 13:29:49;;;;;;;1.40;1.30;;;;;;;;;;5033479;28;20056;-75
2022/07/22 13:32:15;;;;;;;3.88;1.40;;;;;;;;;;5041480;28;20099;-75
2022/07/22 13:34:41;;;;;;;1.80;1.38;;;;;;;;;;5044821;28;20550;-75
2022/07/22 13:37:07;;;;;;;2.85;1.35;;;;;;;;;;5040694;28;20564;-75
2022/07/22 13:39:36;;;;;;;1.58;1.20;;;;;;;;;;5034058;28;20061;-75
2022/07/22 13:42:02;;;;;;;2.28;1.27;;;;;;;;;;5033702;28;20053;-76
2022/07/22 13:44:28;;;;;;;2.65;2.33;;;;;;;;;;5050017;28;20430;-75
2022/07/22 13:46:56;;;;;;;3.70;1.60;;;;;;;;;;5049804;28;20057;-76
2022/07/22 13:49:22;;;;;;;5.25;3.30;;;;;;;;;;5033094;28;20127;-77
2022/07/22 13:51:48;;;;;;;2.25;1.50;;;;;;;;;;5034940;28;20057;-75
2022/07/22 13:54:15;;;;;;;2.75;1.75;;;;;;;;;;5034475;28;20041;-75
2022/07/22 13:56:41;;;;;;;1.63;1.48;;;;;;;;;;5034606;28;20128;-76
2022/07/22 13:59:07;;;;;;;1.58;1.38;;;;;;;;;;5040734;28;20120;-76
2022/07/22 14:01:34;;;;;;;3.17;1.45;;;;;;;;;;5034861;28;20041;-75
2022/07/22 14:04:02;;;;;;;2.20;1.30;;;;;;;;;;5034432;28;20060;-75
2022/07/22 14:06:28;;;;;;;2.95;1.30;;;;;;;;;;5044235;28;20056;-75
2022/07/22 14:08:54;;;;;;;4.10;1.30;;;;;;;;;;5036235;28;20041;-76
2022/07/22 14:11:20;;;;;;;1.70;1.40;;;;;;;;;;5048293;28;20049;-76
2022/07/22 14:13:46;;;;;;;3.22;1.50;;;;;;;;;;5052061;28;20148;-76
2022/07/22 14:18:56;;;;;;;1.80;1.30;;;;;;;;;;5039845;28;20077;-76
2022/07/22 14:21:25;;;;;;;2.88;1.30;;;;;;;;;;5046458;28;20124;-75
2022/07/22 14:23:51;;;;;;;1.55;1.20;;;;;;;;;;5052169;28;20136;-76
2022/07/22 14:26:17;;;;;;;4.22;1.30;;;;;;;;;;5047277;28;20469;-76
2022/07/22 14:28:43;;;;;;;2.03;1.70;;;;;;;;;;5035520;28;20050;-76
2022/07/22 14:31:09;;;;;;;3.38;1.30;;;;;;;;;;5033771;28;20060;-75
2022/07/22 14:33:35;;;;;;;3.78;1.25;;;;;;;;;;5033893;28;20412;-76
2022/07/22 14:36:01;;;;;;;1.42;1.30;;;;;;;;;;5034452;28;20045;-75
2022/07/22 14:38:27;;;;;;;1.48;1.20;;;;;;;;;;5039230;28;20047;-76
2022/07/22 14:40:53;;;;;;;2.17;1.33;;;;;;;;;;5054004;28;20136;-75
2022/07/22 14:43:19;;;;;;;3.72;1.25;;;;;;;;;;5036199;28;20057;-75
2022/07/22 14:45:45;;;;;;;1.40;1.30;;;;;;;;;;5033855;28;20060;-76